sensor_id;sensor_type;location;lat;lon;timestamp;pressure;altitude;pressure_sealevel;temperature;humidity
64862;BME280;62652;42.274;-71.436;2023-04-07T00:00:01;101260.0;;;17.5;unknown
64862;BME280;62652;42.274;-71.436;2023-04-07T00:01:01;101260.0;;;17.5;unknown
64862;BME280;62652;42.274;-71.436;2023-04-07T00:02:01;101260.0;;;17.38888888888889;unknown
64862;BME280;62652;42.274;-71.436;2023-04-07T00:03:01;101260.0;;;17.27777777777778;unknown
64862;BME280;62652;42.274;-71.436;2023-04-07T00:04:01;101260.0;;;17.22222222222222;unknown
64862;BME280;62652;42.274;-71.436;2023-04-07T00:05:01;101270.0;;;17.27777777777778;unknown
64862;BME280;62652;42.274;-71.436;2023-04-07T00:06:01;101270.0;;;17.27777777777778;unknown
64862;BME280;62652;42.274;-71.436;2023-04-07T00:07:01;101270.0;;;17.27777777777778;unknown
64862;BME280;62652;42.274;-71.436;2023-04-07T00:08:01;101290.0;;;17.22222222222222;unknown
64862;BME280;62652;42.274;-71.436;2023-04-07T00:09:01;101300.0;;;17.11111111111111;unknown
64862;BME280;62652;42.274;-71.436;2023-04-07T00:10:01;101300.0;;;17.11111111111111;unknown
64862;BME280;62652;42.274;-71.436;2023-04-07T00:11:00;101310.0;;;17.0;unknown
64862;BME280;62652;42.274;-71.436;2023-04-07T00:12:01;101310.0;;;16.88888888888889;unknown
64862;BME280;62652;42.274;-71.436;2023-04-07T00:13:01;101310.0;;;16.77777777777778;unknown
64862;BME280;62652;42.274;-71.436;2023-04-07T00:14:01;101310.0;;;16.72222222222222;unknown
64862;BME280;62652;42.274;-71.436;2023-04-07T00:15:01;101320.0;;;16.61111111111111;unknown
64862;BME280;62652;42.274;-71.436;2023-04-07T00:16:01;101320.0;;;16.61111111111111;unknown
64862;BME280;62652;42.274;-71.436;2023-04-07T00:17:01;101350.0;;;16.61111111111111;unknown
64862;BME280;62652;42.274;-71.436;2023-04-07T00:18:01;101340.0;;;16.5;unknown
64862;BME280;62652;42.274;-71.436;2023-04-07T00:19:01;101350.0;;;16.5;unknown
64862;BME280;62652;42.274;-71.436;2023-04-07T00:20:01;101350.0;;;16.5;unknown
64862;BME280;62652;42.274;-71.436;2023-04-07T00:21:00;101350.0;;;16.5;unknown
64862;BME280;62652;42.274;-71.436;2023-04-07T00:22:00;101340.0;;;16.38888888888889;unknown
64862;BME280;62652;42.274;-71.436;2023-04-07T00:23:01;101350.0;;;16.27777777777778;unknown
64862;BME280;62652;42.274;-71.436;2023-04-07T00:24:01;101350.0;;;16.27777777777778;unknown
64862;BME280;62652;42.274;-71.436;2023-04-07T00:25:01;101360.0;;;16.27777777777778;unknown
64862;BME280;62652;42.274;-71.436;2023-04-07T00:26:01;101350.0;;;16.22222222222222;unknown
64862;BME280;62652;42.274;-71.436;2023-04-07T00:27:01;101370.0;;;16.11111111111111;unknown
64862;BME280;62652;42.274;-71.436;2023-04-07T00:28:01;101370.0;;;16.11111111111111;unknown
64862;BME280;62652;42.274;-71.436;2023-04-07T00:29:00;101370.0;;;16.11111111111111;unknown
64862;BME280;62652;42.274;-71.436;2023-04-07T00:30:01;101370.0;;;16.11111111111111;unknown
64862;BME280;62652;42.274;-71.436;2023-04-07T00:31:00;101370.0;;;16.11111111111111;unknown
64862;BME280;62652;42.274;-71.436;2023-04-07T00:32:01;101380.0;;;16.11111111111111;unknown
64862;BME280;62652;42.274;-71.436;2023-04-07T00:33:00;101380.0;;;16.0;unknown
64862;BME280;62652;42.274;-71.436;2023-04-07T00:34:01;101380.0;;;15.88888888888889;unknown
64862;BME280;62652;42.274;-71.436;2023-04-07T00:35:01;101370.0;;;15.88888888888889;unknown
64862;BME280;62652;42.274;-71.436;2023-04-07T00:36:01;101380.0;;;15.88888888888889;unknown
64862;BME280;62652;42.274;-71.436;2023-04-07T00:37:01;101370.0;;;15.777777777777779;unknown
64862;BME280;62652;42.274;-71.436;2023-04-07T00:38:00;101360.0;;;15.777777777777779;unknown
64862;BME280;62652;42.274;-71.436;2023-04-07T00:39:01;101370.0;;;15.777777777777779;unknown
64862;BME280;62652;42.274;-71.436;2023-04-07T00:40:01;101370.0;;;15.88888888888889;unknown
64862;BME280;62652;42.274;-71.436;2023-04-07T00:41:01;101360.0;;;15.88888888888889;unknown
64862;BME280;62652;42.274;-71.436;2023-04-07T00:42:02;101370.0;;;15.88888888888889;unknown
64862;BME280;62652;42.274;-71.436;2023-04-07T00:43:01;101370.0;;;15.88888888888889;unknown
64862;BME280;62652;42.274;-71.436;2023-04-07T00:44:01;101370.0;;;15.777777777777779;unknown
64862;BME280;62652;42.274;-71.436;2023-04-07T00:45:01;101380.0;;;15.777777777777779;unknown
64862;BME280;62652;42.274;-71.436;2023-04-07T00:46:01;101390.0;;;15.777777777777779;unknown
64862;BME280;62652;42.274;-71.436;2023-04-07T00:47:01;101390.0;;;15.777777777777779;unknown
64862;BME280;62652;42.274;-71.436;2023-04-07T00:48:00;101390.0;;;15.777777777777779;unknown
64862;BME280;62652;42.274;-71.436;2023-04-07T00:49:01;101390.0;;;15.722222222222221;unknown
64862;BME280;62652;42.274;-71.436;2023-04-07T00:50:02;101380.0;;;15.61111111111111;unknown
64862;BME280;62652;42.274;-71.436;2023-04-07T00:51:01;101390.0;;;15.722222222222221;unknown
64862;BME280;62652;42.274;-71.436;2023-04-07T00:52:01;101400.0;;;15.722222222222221;unknown
64862;BME280;62652;42.274;-71.436;2023-04-07T00:53:01;101390.0;;;15.722222222222221;unknown
64862;BME280;62652;42.274;-71.436;2023-04-07T00:54:01;101390.0;;;15.61111111111111;unknown
64862;BME280;62652;42.274;-71.436;2023-04-07T00:55:00;101390.0;;;15.61111111111111;unknown
64862;BME280;62652;42.274;-71.436;2023-04-07T00:56:01;101370.0;;;15.5;unknown
64862;BME280;62652;42.274;-71.436;2023-04-07T00:57:01;101390.0;;;15.38888888888889;unknown
64862;BME280;62652;42.274;-71.436;2023-04-07T00:58:01;101390.0;;;15.38888888888889;unknown
64862;BME280;62652;42.274;-71.436;2023-04-07T00:59:03;101390.0;;;15.277777777777779;unknown
64862;BME280;62652;42.274;-71.436;2023-04-07T01:00:01;101400.0;;;15.222222222222221;unknown
64862;BME280;62652;42.274;-71.436;2023-04-07T01:01:08;101390.0;;;15.11111111111111;unknown
64862;BME280;62652;42.274;-71.436;2023-04-07T01:02:04;101380.0;;;15.0;unknown
64862;BME280;62652;42.274;-71.436;2023-04-07T01:03:05;101390.0;;;15.0;unknown
64862;BME280;62652;42.274;-71.436;2023-04-07T01:04:04;101400.0;;;15.0;unknown
64862;BME280;62652;42.274;-71.436;2023-04-07T01:05:08;101390.0;;;15.0;unknown
64862;BME280;62652;42.274;-71.436;2023-04-07T01:06:02;101400.0;;;14.88888888888889;unknown
64862;BME280;62652;42.274;-71.436;2023-04-07T01:07:05;101400.0;;;14.777777777777779;unknown
64862;BME280;62652;42.274;-71.436;2023-04-07T01:08:10;101400.0;;;14.777777777777779;unknown
64862;BME280;62652;42.274;-71.436;2023-04-07T01:09:04;101400.0;;;14.777777777777779;unknown
64862;BME280;62652;42.274;-71.436;2023-04-07T01:10:03;101410.0;;;14.777777777777779;unknown
64862;BME280;62652;42.274;-71.436;2023-04-07T01:11:09;101410.0;;;14.722222222222221;unknown
64862;BME280;62652;42.274;-71.436;2023-04-07T01:12:04;101400.0;;;14.61111111111111;unknown
64862;BME280;62652;42.274;-71.436;2023-04-07T01:13:04;101400.0;;;14.61111111111111;unknown
64862;BME280;62652;42.274;-71.436;2023-04-07T01:14:02;101410.0;;;14.5;unknown
64862;BME280;62652;42.274;-71.436;2023-04-07T01:15:07;101420.0;;;14.5;unknown
64862;BME280;62652;42.274;-71.436;2023-04-07T01:16:04;101430.0;;;14.38888888888889;unknown
64862;BME280;62652;42.274;-71.436;2023-04-07T01:17:02;101430.0;;;14.38888888888889;unknown
64862;BME280;62652;42.274;-71.436;2023-04-07T01:18:07;101430.0;;;14.38888888888889;unknown
64862;BME280;62652;42.274;-71.436;2023-04-07T01:19:08;101430.0;;;14.277777777777779;unknown
64862;BME280;62652;42.274;-71.436;2023-04-07T01:20:02;101430.0;;;14.38888888888889;unknown
64862;BME280;62652;42.274;-71.436;2023-04-07T01:21:03;101430.0;;;14.38888888888889;unknown
64862;BME280;62652;42.274;-71.436;2023-04-07T01:22:02;101430.0;;;14.277777777777779;unknown
64862;BME280;62652;42.274;-71.436;2023-04-07T01:23:04;101430.0;;;14.277777777777779;unknown
64862;BME280;62652;42.274;-71.436;2023-04-07T01:24:18;101430.0;;;14.277777777777779;unknown
64862;BME280;62652;42.274;-71.436;2023-04-07T01:26:09;101420.0;;;14.277777777777779;unknown
64862;BME280;62652;42.274;-71.436;2023-04-07T01:27:14;101410.0;;;14.277777777777779;unknown
64862;BME280;62652;42.274;-71.436;2023-04-07T01:28:14;101410.0;;;14.38888888888889;unknown
64862;BME280;62652;42.274;-71.436;2023-04-07T01:29:18;101420.0;;;14.38888888888889;unknown
64862;BME280;62652;42.274;-71.436;2023-04-07T01:30:02;101410.0;;;14.277777777777779;unknown
64862;BME280;62652;42.274;-71.436;2023-04-07T01:31:03;101410.0;;;14.222222222222221;unknown
64862;BME280;62652;42.274;-71.436;2023-04-07T01:32:03;101400.0;;;14.222222222222221;unknown
64862;BME280;62652;42.274;-71.436;2023-04-07T01:33:01;101400.0;;;14.222222222222221;unknown
64862;BME280;62652;42.274;-71.436;2023-04-07T01:34:02;101400.0;;;14.222222222222221;unknown
64862;BME280;62652;42.274;-71.436;2023-04-07T01:35:02;101390.0;;;14.11111111111111;unknown
64862;BME280;62652;42.274;-71.436;2023-04-07T01:36:02;101390.0;;;14.11111111111111;unknown
64862;BME280;62652;42.274;-71.436;2023-04-07T01:37:01;101380.0;;;14.222222222222221;unknown
64862;BME280;62652;42.274;-71.436;2023-04-07T01:38:02;101390.0;;;14.222222222222221;unknown
64862;BME280;62652;42.274;-71.436;2023-04-07T01:39:01;101390.0;;;14.11111111111111;unknown
64862;BME280;62652;42.274;-71.436;2023-04-07T01:40:02;101400.0;;;14.11111111111111;unknown
64862;BME280;62652;42.274;-71.436;2023-04-07T01:41:02;101400.0;;;14.11111111111111;unknown
64862;BME280;62652;42.274;-71.436;2023-04-07T01:42:03;101400.0;;;14.11111111111111;unknown
64862;BME280;62652;42.274;-71.436;2023-04-07T01:43:01;101420.0;;;14.000000000000002;unknown
64862;BME280;62652;42.274;-71.436;2023-04-07T01:44:02;101410.0;;;14.000000000000002;unknown
64862;BME280;62652;42.274;-71.436;2023-04-07T01:45:01;101420.0;;;14.000000000000002;unknown
64862;BME280;62652;42.274;-71.436;2023-04-07T01:46:02;101420.0;;;13.88888888888889;unknown
64862;BME280;62652;42.274;-71.436;2023-04-07T01:47:01;101420.0;;;13.88888888888889;unknown
64862;BME280;62652;42.274;-71.436;2023-04-07T01:48:03;101430.0;;;13.88888888888889;unknown
64862;BME280;62652;42.274;-71.436;2023-04-07T01:49:01;101430.0;;;13.88888888888889;unknown
64862;BME280;62652;42.274;-71.436;2023-04-07T01:50:01;101430.0;;;13.88888888888889;unknown
64862;BME280;62652;42.274;-71.436;2023-04-07T01:51:02;101420.0;;;13.88888888888889;unknown
64862;BME280;62652;42.274;-71.436;2023-04-07T01:52:01;101420.0;;;13.777777777777777;unknown
64862;BME280;62652;42.274;-71.436;2023-04-07T01:53:02;101410.0;;;13.722222222222223;unknown
64862;BME280;62652;42.274;-71.436;2023-04-07T01:54:01;101400.0;;;13.777777777777777;unknown
64862;BME280;62652;42.274;-71.436;2023-04-07T01:55:02;101400.0;;;13.722222222222223;unknown
64862;BME280;62652;42.274;-71.436;2023-04-07T01:56:01;101390.0;;;13.722222222222223;unknown
64862;BME280;62652;42.274;-71.436;2023-04-07T01:57:01;101390.0;;;13.722222222222223;unknown
64862;BME280;62652;42.274;-71.436;2023-04-07T01:58:03;101390.0;;;13.722222222222223;unknown
64862;BME280;62652;42.274;-71.436;2023-04-07T01:59:01;101390.0;;;13.722222222222223;unknown
64862;BME280;62652;42.274;-71.436;2023-04-07T02:00:01;101380.0;;;13.61111111111111;unknown
64862;BME280;62652;42.274;-71.436;2023-04-07T02:01:01;101380.0;;;13.61111111111111;unknown
64862;BME280;62652;42.274;-71.436;2023-04-07T02:02:01;101380.0;;;13.61111111111111;unknown
64862;BME280;62652;42.274;-71.436;2023-04-07T02:03:06;101390.0;;;13.499999999999998;unknown
64862;BME280;62652;42.274;-71.436;2023-04-07T02:04:05;101400.0;;;13.499999999999998;unknown
64862;BME280;62652;42.274;-71.436;2023-04-07T02:05:04;101390.0;;;13.61111111111111;unknown
64862;BME280;62652;42.274;-71.436;2023-04-07T02:06:05;101390.0;;;13.38888888888889;unknown
64862;BME280;62652;42.274;-71.436;2023-04-07T02:07:07;101380.0;;;13.38888888888889;unknown
64862;BME280;62652;42.274;-71.436;2023-04-07T02:08:04;101380.0;;;13.38888888888889;unknown
64862;BME280;62652;42.274;-71.436;2023-04-07T02:09:03;101370.0;;;13.277777777777779;unknown
64862;BME280;62652;42.274;-71.436;2023-04-07T02:10:02;101360.0;;;13.277777777777779;unknown
64862;BME280;62652;42.274;-71.436;2023-04-07T02:11:02;101350.0;;;13.277777777777779;unknown
64862;BME280;62652;42.274;-71.436;2023-04-07T02:12:03;101360.0;;;13.38888888888889;unknown
64862;BME280;62652;42.274;-71.436;2023-04-07T02:13:02;101360.0;;;13.38888888888889;unknown
64862;BME280;62652;42.274;-71.436;2023-04-07T02:14:03;101360.0;;;13.38888888888889;unknown
64862;BME280;62652;42.274;-71.436;2023-04-07T02:15:02;101350.0;;;13.38888888888889;unknown
64862;BME280;62652;42.274;-71.436;2023-04-07T02:16:01;101360.0;;;13.38888888888889;unknown
64862;BME280;62652;42.274;-71.436;2023-04-07T02:17:03;101360.0;;;13.277777777777779;unknown
64862;BME280;62652;42.274;-71.436;2023-04-07T02:18:02;101360.0;;;13.38888888888889;unknown
64862;BME280;62652;42.274;-71.436;2023-04-07T02:19:01;101360.0;;;13.38888888888889;unknown
64862;BME280;62652;42.274;-71.436;2023-04-07T02:20:01;101360.0;;;13.277777777777779;unknown
64862;BME280;62652;42.274;-71.436;2023-04-07T02:21:02;101360.0;;;13.277777777777779;unknown
64862;BME280;62652;42.274;-71.436;2023-04-07T02:22:02;101350.0;;;13.277777777777779;unknown
64862;BME280;62652;42.274;-71.436;2023-04-07T02:23:01;101350.0;;;13.277777777777779;unknown
64862;BME280;62652;42.274;-71.436;2023-04-07T02:24:03;101350.0;;;13.277777777777779;unknown
64862;BME280;62652;42.274;-71.436;2023-04-07T02:25:00;101340.0;;;13.277777777777779;unknown
64862;BME280;62652;42.274;-71.436;2023-04-07T02:26:01;101350.0;;;13.277777777777779;unknown
64862;BME280;62652;42.274;-71.436;2023-04-07T02:27:01;101350.0;;;13.222222222222221;unknown
64862;BME280;62652;42.274;-71.436;2023-04-07T02:28:01;101360.0;;;13.222222222222221;unknown
64862;BME280;62652;42.274;-71.436;2023-04-07T02:29:01;101360.0;;;13.222222222222221;unknown
64862;BME280;62652;42.274;-71.436;2023-04-07T02:30:00;101360.0;;;13.11111111111111;unknown
64862;BME280;62652;42.274;-71.436;2023-04-07T02:31:00;101370.0;;;13.11111111111111;unknown
64862;BME280;62652;42.274;-71.436;2023-04-07T02:32:01;101370.0;;;13.11111111111111;unknown
64862;BME280;62652;42.274;-71.436;2023-04-07T02:33:01;101390.0;;;13.11111111111111;unknown
64862;BME280;62652;42.274;-71.436;2023-04-07T02:34:01;101390.0;;;13.11111111111111;unknown
64862;BME280;62652;42.274;-71.436;2023-04-07T02:35:01;101390.0;;;13.11111111111111;unknown
64862;BME280;62652;42.274;-71.436;2023-04-07T02:36:01;101400.0;;;13.11111111111111;unknown
64862;BME280;62652;42.274;-71.436;2023-04-07T02:37:01;101390.0;;;13.11111111111111;unknown
64862;BME280;62652;42.274;-71.436;2023-04-07T02:38:01;101390.0;;;13.11111111111111;unknown
64862;BME280;62652;42.274;-71.436;2023-04-07T02:39:01;101390.0;;;13.11111111111111;unknown
64862;BME280;62652;42.274;-71.436;2023-04-07T02:40:01;101390.0;;;13.222222222222221;unknown
64862;BME280;62652;42.274;-71.436;2023-04-07T02:41:00;101380.0;;;13.11111111111111;unknown
64862;BME280;62652;42.274;-71.436;2023-04-07T02:42:01;101380.0;;;13.11111111111111;unknown
64862;BME280;62652;42.274;-71.436;2023-04-07T02:43:00;101370.0;;;13.11111111111111;unknown
64862;BME280;62652;42.274;-71.436;2023-04-07T02:44:01;101380.0;;;13.11111111111111;unknown
64862;BME280;62652;42.274;-71.436;2023-04-07T02:45:01;101380.0;;;13.11111111111111;unknown
64862;BME280;62652;42.274;-71.436;2023-04-07T02:46:01;101370.0;;;13.11111111111111;unknown
64862;BME280;62652;42.274;-71.436;2023-04-07T02:47:00;101380.0;;;13.11111111111111;unknown
64862;BME280;62652;42.274;-71.436;2023-04-07T02:48:00;101380.0;;;13.11111111111111;unknown
64862;BME280;62652;42.274;-71.436;2023-04-07T02:49:00;101380.0;;;13.11111111111111;unknown
64862;BME280;62652;42.274;-71.436;2023-04-07T02:50:01;101390.0;;;13.0;unknown
64862;BME280;62652;42.274;-71.436;2023-04-07T02:51:01;101380.0;;;13.0;unknown
64862;BME280;62652;42.274;-71.436;2023-04-07T02:52:01;101400.0;;;13.0;unknown
64862;BME280;62652;42.274;-71.436;2023-04-07T02:53:00;101400.0;;;13.11111111111111;unknown
64862;BME280;62652;42.274;-71.436;2023-04-07T02:54:01;101410.0;;;13.11111111111111;unknown
64862;BME280;62652;42.274;-71.436;2023-04-07T02:55:01;101400.0;;;13.11111111111111;unknown
64862;BME280;62652;42.274;-71.436;2023-04-07T02:56:01;101410.0;;;13.11111111111111;unknown
64862;BME280;62652;42.274;-71.436;2023-04-07T02:57:01;101410.0;;;13.0;unknown
64862;BME280;62652;42.274;-71.436;2023-04-07T02:58:01;101410.0;;;13.11111111111111;unknown
64862;BME280;62652;42.274;-71.436;2023-04-07T02:59:01;101420.0;;;13.11111111111111;unknown
64862;BME280;62652;42.274;-71.436;2023-04-07T03:00:01;101420.0;;;13.11111111111111;unknown
64862;BME280;62652;42.274;-71.436;2023-04-07T03:01:01;101410.0;;;13.11111111111111;unknown
64862;BME280;62652;42.274;-71.436;2023-04-07T03:02:00;101410.0;;;13.0;unknown
64862;BME280;62652;42.274;-71.436;2023-04-07T03:03:01;101410.0;;;13.11111111111111;unknown
64862;BME280;62652;42.274;-71.436;2023-04-07T03:04:01;101410.0;;;13.11111111111111;unknown
64862;BME280;62652;42.274;-71.436;2023-04-07T03:05:01;101400.0;;;13.11111111111111;unknown
64862;BME280;62652;42.274;-71.436;2023-04-07T03:06:01;101400.0;;;13.11111111111111;unknown
64862;BME280;62652;42.274;-71.436;2023-04-07T03:07:01;101400.0;;;13.11111111111111;unknown
64862;BME280;62652;42.274;-71.436;2023-04-07T03:08:01;101390.0;;;13.11111111111111;unknown
64862;BME280;62652;42.274;-71.436;2023-04-07T03:09:01;101400.0;;;13.11111111111111;unknown
64862;BME280;62652;42.274;-71.436;2023-04-07T03:10:00;101420.0;;;13.0;unknown
64862;BME280;62652;42.274;-71.436;2023-04-07T03:11:01;101430.0;;;13.0;unknown
64862;BME280;62652;42.274;-71.436;2023-04-07T03:12:01;101420.0;;;13.0;unknown
64862;BME280;62652;42.274;-71.436;2023-04-07T03:13:00;101410.0;;;13.11111111111111;unknown
64862;BME280;62652;42.274;-71.436;2023-04-07T03:14:01;101400.0;;;13.11111111111111;unknown
64862;BME280;62652;42.274;-71.436;2023-04-07T03:15:01;101400.0;;;13.0;unknown
64862;BME280;62652;42.274;-71.436;2023-04-07T03:16:00;101400.0;;;13.0;unknown
64862;BME280;62652;42.274;-71.436;2023-04-07T03:17:01;101400.0;;;13.11111111111111;unknown
64862;BME280;62652;42.274;-71.436;2023-04-07T03:18:00;101400.0;;;13.0;unknown
64862;BME280;62652;42.274;-71.436;2023-04-07T03:19:01;101400.0;;;13.0;unknown
64862;BME280;62652;42.274;-71.436;2023-04-07T03:20:01;101400.0;;;13.0;unknown
64862;BME280;62652;42.274;-71.436;2023-04-07T03:21:01;101400.0;;;13.0;unknown
64862;BME280;62652;42.274;-71.436;2023-04-07T03:22:01;101400.0;;;13.0;unknown
64862;BME280;62652;42.274;-71.436;2023-04-07T03:23:00;101420.0;;;13.0;unknown
64862;BME280;62652;42.274;-71.436;2023-04-07T03:24:01;101420.0;;;13.0;unknown
64862;BME280;62652;42.274;-71.436;2023-04-07T03:25:01;101430.0;;;13.0;unknown
64862;BME280;62652;42.274;-71.436;2023-04-07T03:26:01;101430.0;;;13.0;unknown
64862;BME280;62652;42.274;-71.436;2023-04-07T03:27:01;101430.0;;;13.0;unknown
64862;BME280;62652;42.274;-71.436;2023-04-07T03:28:01;101420.0;;;12.888888888888891;unknown
64862;BME280;62652;42.274;-71.436;2023-04-07T03:29:00;101400.0;;;12.888888888888891;unknown
64862;BME280;62652;42.274;-71.436;2023-04-07T03:30:01;101410.0;;;12.888888888888891;unknown
64862;BME280;62652;42.274;-71.436;2023-04-07T03:31:01;101420.0;;;12.888888888888891;unknown
64862;BME280;62652;42.274;-71.436;2023-04-07T03:32:01;101410.0;;;12.888888888888891;unknown
64862;BME280;62652;42.274;-71.436;2023-04-07T03:33:01;101410.0;;;12.888888888888891;unknown
64862;BME280;62652;42.274;-71.436;2023-04-07T03:34:01;101410.0;;;12.888888888888891;unknown
64862;BME280;62652;42.274;-71.436;2023-04-07T03:35:01;101400.0;;;12.888888888888891;unknown
64862;BME280;62652;42.274;-71.436;2023-04-07T03:36:01;101410.0;;;12.888888888888891;unknown
64862;BME280;62652;42.274;-71.436;2023-04-07T03:37:00;101410.0;;;12.888888888888891;unknown
64862;BME280;62652;42.274;-71.436;2023-04-07T03:38:00;101400.0;;;12.888888888888891;unknown
64862;BME280;62652;42.274;-71.436;2023-04-07T03:39:01;101390.0;;;12.888888888888891;unknown
64862;BME280;62652;42.274;-71.436;2023-04-07T03:40:00;101380.0;;;12.888888888888891;unknown
64862;BME280;62652;42.274;-71.436;2023-04-07T03:41:01;101380.0;;;12.888888888888891;unknown
64862;BME280;62652;42.274;-71.436;2023-04-07T03:42:00;101380.0;;;12.888888888888891;unknown
64862;BME280;62652;42.274;-71.436;2023-04-07T03:43:01;101380.0;;;12.888888888888891;unknown
64862;BME280;62652;42.274;-71.436;2023-04-07T03:44:01;101380.0;;;12.888888888888891;unknown
64862;BME280;62652;42.274;-71.436;2023-04-07T03:45:01;101390.0;;;12.777777777777779;unknown
64862;BME280;62652;42.274;-71.436;2023-04-07T03:46:01;101390.0;;;12.777777777777779;unknown
64862;BME280;62652;42.274;-71.436;2023-04-07T03:47:00;101400.0;;;12.888888888888891;unknown
64862;BME280;62652;42.274;-71.436;2023-04-07T03:48:00;101410.0;;;12.888888888888891;unknown
64862;BME280;62652;42.274;-71.436;2023-04-07T03:49:01;101410.0;;;12.777777777777779;unknown
64862;BME280;62652;42.274;-71.436;2023-04-07T03:50:01;101420.0;;;12.888888888888891;unknown
64862;BME280;62652;42.274;-71.436;2023-04-07T03:51:00;101410.0;;;12.888888888888891;unknown
64862;BME280;62652;42.274;-71.436;2023-04-07T03:52:01;101420.0;;;12.888888888888891;unknown
64862;BME280;62652;42.274;-71.436;2023-04-07T03:53:01;101410.0;;;12.888888888888891;unknown
64862;BME280;62652;42.274;-71.436;2023-04-07T03:54:01;101410.0;;;12.888888888888891;unknown
64862;BME280;62652;42.274;-71.436;2023-04-07T03:55:01;101410.0;;;12.888888888888891;unknown
64862;BME280;62652;42.274;-71.436;2023-04-07T03:56:01;101410.0;;;12.888888888888891;unknown
64862;BME280;62652;42.274;-71.436;2023-04-07T03:57:01;101410.0;;;12.888888888888891;unknown
64862;BME280;62652;42.274;-71.436;2023-04-07T03:58:01;101410.0;;;12.888888888888891;unknown
64862;BME280;62652;42.274;-71.436;2023-04-07T03:59:01;101420.0;;;12.888888888888891;unknown
64862;BME280;62652;42.274;-71.436;2023-04-07T04:00:01;101410.0;;;12.888888888888891;unknown
64862;BME280;62652;42.274;-71.436;2023-04-07T04:01:02;101420.0;;;12.888888888888891;unknown
64862;BME280;62652;42.274;-71.436;2023-04-07T04:02:01;101420.0;;;12.777777777777779;unknown
64862;BME280;62652;42.274;-71.436;2023-04-07T04:03:01;101420.0;;;12.777777777777779;unknown
64862;BME280;62652;42.274;-71.436;2023-04-07T04:04:01;101420.0;;;12.777777777777779;unknown
64862;BME280;62652;42.274;-71.436;2023-04-07T04:05:01;101420.0;;;12.777777777777779;unknown
64862;BME280;62652;42.274;-71.436;2023-04-07T04:06:00;101430.0;;;12.777777777777779;unknown
64862;BME280;62652;42.274;-71.436;2023-04-07T04:07:01;101440.0;;;12.777777777777779;unknown
64862;BME280;62652;42.274;-71.436;2023-04-07T04:08:01;101440.0;;;12.777777777777779;unknown
64862;BME280;62652;42.274;-71.436;2023-04-07T04:09:00;101450.0;;;12.777777777777779;unknown
64862;BME280;62652;42.274;-71.436;2023-04-07T04:10:01;101440.0;;;12.777777777777779;unknown
64862;BME280;62652;42.274;-71.436;2023-04-07T04:11:01;101430.0;;;12.777777777777779;unknown
64862;BME280;62652;42.274;-71.436;2023-04-07T04:12:00;101430.0;;;12.777777777777779;unknown
64862;BME280;62652;42.274;-71.436;2023-04-07T04:13:01;101430.0;;;12.777777777777779;unknown
64862;BME280;62652;42.274;-71.436;2023-04-07T04:14:01;101430.0;;;12.777777777777779;unknown
64862;BME280;62652;42.274;-71.436;2023-04-07T04:15:01;101440.0;;;12.777777777777779;unknown
64862;BME280;62652;42.274;-71.436;2023-04-07T04:16:01;101440.0;;;12.777777777777779;unknown
64862;BME280;62652;42.274;-71.436;2023-04-07T04:17:01;101430.0;;;12.777777777777779;unknown
64862;BME280;62652;42.274;-71.436;2023-04-07T04:18:01;101440.0;;;12.888888888888891;unknown
64862;BME280;62652;42.274;-71.436;2023-04-07T04:19:01;101430.0;;;12.888888888888891;unknown
64862;BME280;62652;42.274;-71.436;2023-04-07T04:20:01;101430.0;;;12.777777777777779;unknown
64862;BME280;62652;42.274;-71.436;2023-04-07T04:21:01;101430.0;;;12.777777777777779;unknown
64862;BME280;62652;42.274;-71.436;2023-04-07T04:22:01;101430.0;;;12.777777777777779;unknown
64862;BME280;62652;42.274;-71.436;2023-04-07T04:23:00;101430.0;;;12.888888888888891;unknown
64862;BME280;62652;42.274;-71.436;2023-04-07T04:24:01;101430.0;;;12.888888888888891;unknown
64862;BME280;62652;42.274;-71.436;2023-04-07T04:25:01;101430.0;;;12.888888888888891;unknown
64862;BME280;62652;42.274;-71.436;2023-04-07T04:26:01;101430.0;;;12.888888888888891;unknown